sensor_id;sensor_type;location;lat;lon;timestamp;pressure;altitude;pressure_sealevel;temperature;humidity
42385;BME280;28042;43.986;22.860;2023-04-20T00:02:19;100804.28;;;10.17;100.00
42385;BME280;28042;43.986;22.860;2023-04-20T00:04:46;100811.88;;;10.22;100.00
42385;BME280;28042;43.986;22.860;2023-04-20T00:07:11;100815.63;;;10.20;100.00
42385;BME280;28042;43.986;22.860;2023-04-20T00:09:37;100812.25;;;10.18;100.00
42385;BME280;28042;43.986;22.860;2023-04-20T00:12:03;100760.22;;;9.99;100.00
42385;BME280;28042;43.986;22.860;2023-04-20T00:14:28;100759.16;;;9.93;100.00
42385;BME280;28042;43.986;22.860;2023-04-20T00:16:54;100749.09;;;9.94;100.00
42385;BME280;28042;43.986;22.860;2023-04-20T00:19:20;100760.06;;;10.00;100.00
42385;BME280;28042;43.986;22.860;2023-04-20T00:21:46;100750.88;;;9.86;100.00
42385;BME280;28042;43.986;22.860;2023-04-20T00:24:12;100746.47;;;9.85;100.00
42385;BME280;28042;43.986;22.860;2023-04-20T00:26:37;100812.25;;;10.18;100.00
42385;BME280;28042;43.986;22.860;2023-04-20T00:29:03;100765.84;;;9.90;100.00
42385;BME280;28042;43.986;22.860;2023-04-20T00:31:30;100754.66;;;9.85;100.00
42385;BME280;28042;43.986;22.860;2023-04-20T00:33:56;100806.34;;;10.15;100.00
42385;BME280;28042;43.986;22.860;2023-04-20T00:36:21;100821.56;;;10.24;100.00
42385;BME280;28042;43.986;22.860;2023-04-20T00:38:47;100759.59;;;9.97;100.00
42385;BME280;28042;43.986;22.860;2023-04-20T00:41:12;100809.44;;;10.27;100.00
42385;BME280;28042;43.986;22.860;2023-04-20T00:43:48;100803.41;;;10.31;100.00
42385;BME280;28042;43.986;22.860;2023-04-20T00:46:14;100758.72;;;10.11;100.00
42385;BME280;28042;43.986;22.860;2023-04-20T00:48:41;100801.19;;;10.41;100.00
42385;BME280;28042;43.986;22.860;2023-04-20T00:51:06;100802.31;;;10.47;100.00
42385;BME280;28042;43.986;22.860;2023-04-20T00:53:32;100788.59;;;10.40;100.00
42385;BME280;28042;43.986;22.860;2023-04-20T00:55:58;100784.72;;;10.28;100.00
42385;BME280;28042;43.986;22.860;2023-04-20T00:58:23;100804.84;;;10.48;100.00
42385;BME280;28042;43.986;22.860;2023-04-20T01:00:49;100804.13;;;10.40;100.00
42385;BME280;28042;43.986;22.860;2023-04-20T01:03:15;100742.75;;;10.08;100.00
42385;BME280;28042;43.986;22.860;2023-04-20T01:05:40;100744.69;;;10.14;100.00
42385;BME280;28042;43.986;22.860;2023-04-20T01:08:06;100778.41;;;10.28;100.00
42385;BME280;28042;43.986;22.860;2023-04-20T01:10:31;100799.50;;;10.40;100.00
42385;BME280;28042;43.986;22.860;2023-04-20T01:12:57;100810.28;;;10.48;100.00
42385;BME280;28042;43.986;22.860;2023-04-20T01:15:23;100803.59;;;10.51;100.00
42385;BME280;28042;43.986;22.860;2023-04-20T01:17:48;100789.50;;;10.47;100.00
42385;BME280;28042;43.986;22.860;2023-04-20T01:20:14;100793.59;;;10.58;100.00
42385;BME280;28042;43.986;22.860;2023-04-20T01:22:47;100753.25;;;10.26;100.00
42385;BME280;28042;43.986;22.860;2023-04-20T01:25:13;100745.22;;;10.24;100.00
42385;BME280;28042;43.986;22.860;2023-04-20T01:27:39;100800.94;;;10.58;100.00
42385;BME280;28042;43.986;22.860;2023-04-20T01:30:05;100745.56;;;10.36;100.00
42385;BME280;28042;43.986;22.860;2023-04-20T01:32:30;100799.31;;;10.63;100.00
42385;BME280;28042;43.986;22.860;2023-04-20T01:34:56;100736.69;;;10.27;100.00
42385;BME280;28042;43.986;22.860;2023-04-20T01:37:21;100784.13;;;10.54;100.00
42385;BME280;28042;43.986;22.860;2023-04-20T01:39:47;100788.75;;;10.54;100.00
42385;BME280;28042;43.986;22.860;2023-04-20T01:42:12;100726.25;;;10.16;100.00
42385;BME280;28042;43.986;22.860;2023-04-20T01:44:38;100791.69;;;10.52;100.00
42385;BME280;28042;43.986;22.860;2023-04-20T01:47:03;100791.34;;;10.40;100.00
42385;BME280;28042;43.986;22.860;2023-04-20T01:49:29;100801.06;;;10.28;100.00
42385;BME280;28042;43.986;22.860;2023-04-20T01:51:54;100736.63;;;9.84;100.00
42385;BME280;28042;43.986;22.860;2023-04-20T01:54:21;100734.66;;;9.78;100.00
42385;BME280;28042;43.986;22.860;2023-04-20T01:56:46;100793.53;;;10.15;100.00
42385;BME280;28042;43.986;22.860;2023-04-20T01:59:12;100728.56;;;9.76;100.00
42385;BME280;28042;43.986;22.860;2023-04-20T02:01:37;100775.63;;;10.06;100.00
42385;BME280;28042;43.986;22.860;2023-04-20T02:04:03;100766.72;;;9.98;100.00
42385;BME280;28042;43.986;22.860;2023-04-20T02:06:28;100789.72;;;10.10;100.00
42385;BME280;28042;43.986;22.860;2023-04-20T02:08:54;100789.94;;;10.08;100.00
42385;BME280;28042;43.986;22.860;2023-04-20T02:11:19;100787.38;;;10.07;100.00
42385;BME280;28042;43.986;22.860;2023-04-20T02:13:46;100774.06;;;9.97;100.00
42385;BME280;28042;43.986;22.860;2023-04-20T02:16:12;100730.88;;;9.79;100.00
42385;BME280;28042;43.986;22.860;2023-04-20T02:18:37;100739.72;;;9.81;100.00
42385;BME280;28042;43.986;22.860;2023-04-20T02:21:04;100727.25;;;9.72;100.00
42385;BME280;28042;43.986;22.860;2023-04-20T02:23:30;100721.78;;;9.72;100.00
42385;BME280;28042;43.986;22.860;2023-04-20T02:25:55;100789.94;;;10.08;100.00
42385;BME280;28042;43.986;22.860;2023-04-20T02:28:21;100777.63;;;9.98;100.00
42385;BME280;28042;43.986;22.860;2023-04-20T02:30:46;100724.19;;;9.60;100.00
42385;BME280;28042;43.986;22.860;2023-04-20T02:33:12;100725.66;;;9.63;100.00
42385;BME280;28042;43.986;22.860;2023-04-20T02:35:37;100737.13;;;9.73;100.00
42385;BME280;28042;43.986;22.860;2023-04-20T02:38:03;100735.81;;;9.69;100.00
42385;BME280;28042;43.986;22.860;2023-04-20T02:40:28;100770.13;;;10.00;100.00
42385;BME280;28042;43.986;22.860;2023-04-20T02:42:54;100711.41;;;9.61;100.00
42385;BME280;28042;43.986;22.860;2023-04-20T02:45:19;100734.41;;;9.73;100.00
42385;BME280;28042;43.986;22.860;2023-04-20T02:47:46;100775.19;;;10.03;100.00
42385;BME280;28042;43.986;22.860;2023-04-20T02:50:11;100774.72;;;9.99;100.00
42385;BME280;28042;43.986;22.860;2023-04-20T02:52:37;100786.94;;;10.03;100.00
42385;BME280;28042;43.986;22.860;2023-04-20T02:55:03;100732.53;;;9.74;100.00
42385;BME280;28042;43.986;22.860;2023-04-20T02:57:28;100781.28;;;10.05;100.00
42385;BME280;28042;43.986;22.860;2023-04-20T02:59:54;100783.47;;;9.95;100.00
42385;BME280;28042;43.986;22.860;2023-04-20T03:02:20;100729.31;;;9.70;100.00
42385;BME280;28042;43.986;22.860;2023-04-20T03:04:47;100743.97;;;9.69;100.00
42385;BME280;28042;43.986;22.860;2023-04-20T03:07:13;100760.22;;;9.77;100.00
42385;BME280;28042;43.986;22.860;2023-04-20T03:09:39;100729.81;;;9.59;100.00
42385;BME280;28042;43.986;22.860;2023-04-20T03:12:04;100765.66;;;9.77;100.00
42385;BME280;28042;43.986;22.860;2023-04-20T03:14:30;100794.47;;;9.86;100.00
42385;BME280;28042;43.986;22.860;2023-04-20T03:16:56;100734.34;;;9.52;100.00
42385;BME280;28042;43.986;22.860;2023-04-20T03:19:22;100786.31;;;9.86;100.00
42385;BME280;28042;43.986;22.860;2023-04-20T03:21:48;100765.38;;;9.72;100.00
42385;BME280;28042;43.986;22.860;2023-04-20T03:24:14;100787.53;;;9.84;100.00
42385;BME280;28042;43.986;22.860;2023-04-20T03:26:41;100785.66;;;9.84;100.00
42385;BME280;28042;43.986;22.860;2023-04-20T03:29:06;100790.81;;;9.94;100.00
42385;BME280;28042;43.986;22.860;2023-04-20T03:31:32;100725.97;;;9.53;100.00
42385;BME280;28042;43.986;22.860;2023-04-20T03:33:57;100785.81;;;9.98;100.00
42385;BME280;28042;43.986;22.860;2023-04-20T03:36:23;100776.34;;;9.94;100.00
42385;BME280;28042;43.986;22.860;2023-04-20T03:38:48;100782.81;;;9.93;100.00
42385;BME280;28042;43.986;22.860;2023-04-20T03:41:14;100723.53;;;9.58;100.00
42385;BME280;28042;43.986;22.860;2023-04-20T03:43:39;100778.03;;;9.95;100.00
42385;BME280;28042;43.986;22.860;2023-04-20T03:46:06;100782.19;;;9.90;100.00
42385;BME280;28042;43.986;22.860;2023-04-20T03:48:32;100733.59;;;9.79;100.00
42385;BME280;28042;43.986;22.860;2023-04-20T03:50:57;100729.19;;;9.78;100.00
42385;BME280;28042;43.986;22.860;2023-04-20T03:53:23;100782.75;;;10.22;100.00
42385;BME280;28042;43.986;22.860;2023-04-20T03:55:48;100731.91;;;9.93;100.00
42385;BME280;28042;43.986;22.860;2023-04-20T03:58:14;100778.31;;;10.21;100.00
42385;BME280;28042;43.986;22.860;2023-04-20T04:00:39;100737.22;;;10.01;100.00
42385;BME280;28042;43.986;22.860;2023-04-20T04:03:05;100765.00;;;10.26;100.00
42385;BME280;28042;43.986;22.860;2023-04-20T04:05:31;100741.22;;;10.05;100.00
42385;BME280;28042;43.986;22.860;2023-04-20T04:07:56;100749.91;;;10.30;100.00
42385;BME280;28042;43.986;22.860;2023-04-20T04:10:22;100716.28;;;10.23;100.00
42385;BME280;28042;43.986;22.860;2023-04-20T04:12:47;100730.91;;;10.37;100.00
42385;BME280;28042;43.986;22.860;2023-04-20T04:15:13;100780.72;;;10.95;100.00
42385;BME280;28042;43.986;22.860;2023-04-20T04:17:38;100760.28;;;11.19;100.00
42385;BME280;28042;43.986;22.860;2023-04-20T04:20:05;100776.91;;;11.24;100.00
42385;BME280;28042;43.986;22.860;2023-04-20T04:22:33;100732.81;;;10.92;100.00
42385;BME280;28042;43.986;22.860;2023-04-20T04:24:59;100742.81;;;10.85;100.00
42385;BME280;28042;43.986;22.860;2023-04-20T04:27:24;100727.47;;;10.78;100.00
42385;BME280;28042;43.986;22.860;2023-04-20T04:29:54;100726.41;;;10.79;100.00
42385;BME280;28042;43.986;22.860;2023-04-20T04:32:21;100786.69;;;11.12;100.00
42385;BME280;28042;43.986;22.860;2023-04-20T04:34:48;100793.66;;;11.14;100.00
42385;BME280;28042;43.986;22.860;2023-04-20T04:37:14;100736.66;;;10.76;100.00
42385;BME280;28042;43.986;22.860;2023-04-20T04:39:40;100731.81;;;10.72;100.00
42385;BME280;28042;43.986;22.860;2023-04-20T04:42:05;100748.25;;;10.79;100.00
42385;BME280;28042;43.986;22.860;2023-04-20T04:44:31;100795.34;;;11.15;100.00
42385;BME280;28042;43.986;22.860;2023-04-20T04:46:57;100796.63;;;11.19;100.00
42385;BME280;28042;43.986;22.860;2023-04-20T04:49:23;100736.56;;;10.91;100.00
42385;BME280;28042;43.986;22.860;2023-04-20T04:51:49;100806.19;;;11.37;100.00
42385;BME280;28042;43.986;22.860;2023-04-20T04:54:14;100746.94;;;11.02;100.00
42385;BME280;28042;43.986;22.860;2023-04-20T04:56:40;100742.56;;;11.08;100.00
42385;BME280;28042;43.986;22.860;2023-04-20T04:59:05;100773.78;;;11.27;100.00
42385;BME280;28042;43.986;22.860;2023-04-20T05:01:31;100805.00;;;11.52;100.00
42385;BME280;28042;43.986;22.860;2023-04-20T05:03:56;100766.66;;;11.32;100.00
42385;BME280;28042;43.986;22.860;2023-04-20T05:06:21;100813.53;;;11.71;100.00
42385;BME280;28042;43.986;22.860;2023-04-20T05:08:47;100756.63;;;11.40;100.00
42385;BME280;28042;43.986;22.860;2023-04-20T05:11:12;100760.44;;;11.45;100.00
42385;BME280;28042;43.986;22.860;2023-04-20T05:13:38;100769.75;;;11.57;100.00
42385;BME280;28042;43.986;22.860;2023-04-20T05:16:03;100768.59;;;11.80;100.00
42385;BME280;28042;43.986;22.860;2023-04-20T05:18:29;100785.63;;;12.36;100.00
42385;BME280;28042;43.986;22.860;2023-04-20T05:20:55;100811.34;;;12.82;100.00
42385;BME280;28042;43.986;22.860;2023-04-20T05:23:21;100742.28;;;12.66;100.00
42385;BME280;28042;43.986;22.860;2023-04-20T05:25:47;100794.84;;;13.61;100.00
42385;BME280;28042;43.986;22.860;2023-04-20T05:28:12;100750.66;;;13.11;97.94
42385;BME280;28042;43.986;22.860;2023-04-20T05:30:37;100794.88;;;13.48;97.79
42385;BME280;28042;43.986;22.860;2023-04-20T05:33:03;100798.69;;;13.34;98.14
42385;BME280;28042;43.986;22.860;2023-04-20T05:35:28;100811.16;;;13.29;99.33
42385;BME280;28042;43.986;22.860;2023-04-20T05:37:54;100802.44;;;13.52;98.12
42385;BME280;28042;43.986;22.860;2023-04-20T05:40:19;100765.63;;;13.93;93.37
42385;BME280;28042;43.986;22.860;2023-04-20T05:42:45;100772.50;;;14.47;89.13
42385;BME280;28042;43.986;22.860;2023-04-20T05:45:10;100756.81;;;14.86;87.59
42385;BME280;28042;43.986;22.860;2023-04-20T05:47:36;100796.53;;;15.51;84.47
42385;BME280;28042;43.986;22.860;2023-04-20T05:50:02;100807.50;;;15.51;81.42
42385;BME280;28042;43.986;22.860;2023-04-20T05:52:28;100758.19;;;14.70;84.23
42385;BME280;28042;43.986;22.860;2023-04-20T05:54:54;100808.41;;;14.39;87.23
42385;BME280;28042;43.986;22.860;2023-04-20T05:57:19;100759.28;;;13.93;88.37
42385;BME280;28042;43.986;22.860;2023-04-20T05:59:46;100772.06;;;13.67;89.34
42385;BME280;28042;43.986;22.860;2023-04-20T06:02:11;100764.31;;;13.51;92.13
42385;BME280;28042;43.986;22.860;2023-04-20T06:04:36;100768.78;;;13.39;93.53
42385;BME280;28042;43.986;22.860;2023-04-20T06:07:02;100823.53;;;13.65;93.21
42385;BME280;28042;43.986;22.860;2023-04-20T06:09:27;100767.91;;;13.18;95.58
42385;BME280;28042;43.986;22.860;2023-04-20T06:11:53;100783.31;;;13.26;93.88
42385;BME280;28042;43.986;22.860;2023-04-20T06:14:18;100779.53;;;13.34;94.08
42385;BME280;28042;43.986;22.860;2023-04-20T06:16:44;100824.97;;;13.74;94.39
42385;BME280;28042;43.986;22.860;2023-04-20T06:19:10;100818.59;;;13.80;93.22
42385;BME280;28042;43.986;22.860;2023-04-20T06:21:35;100812.88;;;13.89;88.66
42385;BME280;28042;43.986;22.860;2023-04-20T06:24:01;100806.25;;;14.16;88.44
42385;BME280;28042;43.986;22.860;2023-04-20T06:26:26;100809.50;;;14.31;86.80
42385;BME280;28042;43.986;22.860;2023-04-20T06:28:52;100756.22;;;14.14;85.71
42385;BME280;28042;43.986;22.860;2023-04-20T06:31:18;100756.16;;;14.27;85.48
42385;BME280;28042;43.986;22.860;2023-04-20T06:33:44;100775.47;;;14.39;82.32
42385;BME280;28042;43.986;22.860;2023-04-20T06:36:09;100803.41;;;14.67;83.08
42385;BME280;28042;43.986;22.860;2023-04-20T06:38:35;100744.22;;;14.47;80.96
42385;BME280;28042;43.986;22.860;2023-04-20T06:41:01;100798.38;;;14.89;81.59
42385;BME280;28042;43.986;22.860;2023-04-20T06:43:27;100814.03;;;15.14;82.01
42385;BME280;28042;43.986;22.860;2023-04-20T06:45:53;100770.97;;;14.83;79.73
42385;BME280;28042;43.986;22.860;2023-04-20T06:48:18;100771.81;;;14.83;80.99
42385;BME280;28042;43.986;22.860;2023-04-20T06:50:47;100818.28;;;15.10;79.18
42385;BME280;28042;43.986;22.860;2023-04-20T06:53:13;100766.06;;;14.85;79.36
42385;BME280;28042;43.986;22.860;2023-04-20T06:55:38;100774.59;;;15.02;78.33
42385;BME280;28042;43.986;22.860;2023-04-20T06:58:04;100749.25;;;14.99;74.63
42385;BME280;28042;43.986;22.860;2023-04-20T07:00:29;100764.13;;;14.92;74.40
42385;BME280;28042;43.986;22.860;2023-04-20T07:02:55;100819.66;;;15.19;74.32
42385;BME280;28042;43.986;22.860;2023-04-20T07:05:21;100801.97;;;15.15;73.58
42385;BME280;28042;43.986;22.860;2023-04-20T07:07:47;100808.69;;;15.19;74.16
42385;BME280;28042;43.986;22.860;2023-04-20T07:10:13;100815.78;;;15.26;73.29
42385;BME280;28042;43.986;22.860;2023-04-20T07:12:39;100825.84;;;15.39;75.44
42385;BME280;28042;43.986;22.860;2023-04-20T07:15:07;100823.88;;;15.46;73.09
42385;BME280;28042;43.986;22.860;2023-04-20T07:17:33;100821.13;;;15.46;74.70
42385;BME280;28042;43.986;22.860;2023-04-20T07:20:00;100809.53;;;15.63;75.15
42385;BME280;28042;43.986;22.860;2023-04-20T07:22:30;100771.16;;;15.49;73.70
42385;BME280;28042;43.986;22.860;2023-04-20T07:24:56;100815.66;;;15.83;74.61
42385;BME280;28042;43.986;22.860;2023-04-20T07:27:21;100808.09;;;15.78;72.85
42385;BME280;28042;43.986;22.860;2023-04-20T07:29:47;100816.81;;;15.94;73.33
42385;BME280;28042;43.986;22.860;2023-04-20T07:32:12;100783.88;;;15.69;72.99
42385;BME280;28042;43.986;22.860;2023-04-20T07:34:38;100770.41;;;15.79;72.50
42385;BME280;28042;43.986;22.860;2023-04-20T07:37:04;100821.59;;;16.17;72.70
42385;BME280;28042;43.986;22.860;2023-04-20T07:39:29;100777.72;;;16.03;72.94
42385;BME280;28042;43.986;22.860;2023-04-20T07:41:55;100820.75;;;16.46;70.62
42385;BME280;28042;43.986;22.860;2023-04-20T07:44:21;100788.25;;;16.06;69.05
42385;BME280;28042;43.986;22.860;2023-04-20T07:46:46;100770.31;;;16.04;69.69
42385;BME280;28042;43.986;22.860;2023-04-20T07:49:14;100812.03;;;16.49;70.46
42385;BME280;28042;43.986;22.860;2023-04-20T07:51:39;100808.81;;;16.52;69.79
42385;BME280;28042;43.986;22.860;2023-04-20T07:54:05;100808.19;;;16.69;67.63
42385;BME280;28042;43.986;22.860;2023-04-20T07:56:30;100790.69;;;16.75;67.69
42385;BME280;28042;43.986;22.860;2023-04-20T07:58:56;100784.72;;;16.78;66.30
42385;BME280;28042;43.986;22.860;2023-04-20T08:01:24;100772.75;;;16.84;66.03
42385;BME280;28042;43.986;22.860;2023-04-20T08:03:51;100819.78;;;17.12;65.31
42385;BME280;28042;43.986;22.860;2023-04-20T08:06:16;100783.56;;;16.97;64.61
42385;BME280;28042;43.986;22.860;2023-04-20T08:08:42;100810.66;;;17.23;64.33
42385;BME280;28042;43.986;22.860;2023-04-20T08:11:07;100810.88;;;17.10;65.04
42385;BME280;28042;43.986;22.860;2023-04-20T08:13:34;100798.78;;;17.23;64.08
42385;BME280;28042;43.986;22.860;2023-04-20T08:16:01;100811.03;;;17.39;64.81
42385;BME280;28042;43.986;22.860;2023-04-20T08:18:26;100774.34;;;17.15;63.12
42385;BME280;28042;43.986;22.860;2023-04-20T08:20:54;100808.72;;;17.36;64.01
42385;BME280;28042;43.986;22.860;2023-04-20T08:23:19;100762.22;;;16.92;63.60
42385;BME280;28042;43.986;22.860;2023-04-20T08:25:45;100807.06;;;17.35;64.07
42385;BME280;28042;43.986;22.860;2023-04-20T08:28:10;100763.31;;;17.38;61.78
42385;BME280;28042;43.986;22.860;2023-04-20T08:30:37;100758.03;;;17.25;62.34
42385;BME280;28042;43.986;22.860;2023-04-20T08:33:04;100762.91;;;17.58;62.88
42385;BME280;28042;43.986;22.860;2023-04-20T08:35:29;100792.78;;;18.13;62.91
42385;BME280;28042;43.986;22.860;2023-04-20T08:37:55;100800.97;;;18.08;60.55
42385;BME280;28042;43.986;22.860;2023-04-20T08:40:20;100807.09;;;18.10;59.74
42385;BME280;28042;43.986;22.860;2023-04-20T08:42:46;100797.03;;;18.04;61.06
42385;BME280;28042;43.986;22.860;2023-04-20T08:45:12;100752.72;;;17.59;61.22
42385;BME280;28042;43.986;22.860;2023-04-20T08:47:38;100732.44;;;17.53;59.58
42385;BME280;28042;43.986;22.860;2023-04-20T08:50:05;100789.44;;;18.11;58.73
42385;BME280;28042;43.986;22.860;2023-04-20T08:52:31;100734.50;;;17.98;59.37
42385;BME280;28042;43.986;22.860;2023-04-20T08:54:57;100745.13;;;18.18;59.48
42385;BME280;28042;43.986;22.860;2023-04-20T08:57:22;100785.00;;;18.39;59.48
42385;BME280;28042;43.986;22.860;2023-04-20T08:59:48;100790.22;;;18.52;58.82
42385;BME280;28042;43.986;22.860;2023-04-20T09:02:13;100788.38;;;18.69;57.19
42385;BME280;28042;43.986;22.860;2023-04-20T09:04:39;100789.94;;;18.65;56.59
42385;BME280;28042;43.986;22.860;2023-04-20T09:07:15;100737.66;;;18.63;56.26
42385;BME280;28042;43.986;22.860;2023-04-20T09:09:40;100733.16;;;19.08;55.67
42385;BME280;28042;43.986;22.860;2023-04-20T09:12:06;100741.19;;;19.09;55.21
42385;BME280;28042;43.986;22.860;2023-04-20T09:14:45;100728.31;;;18.81;54.22
42385;BME280;28042;43.986;22.860;2023-04-20T09:17:12;100783.75;;;18.91;52.46
42385;BME280;28042;43.986;22.860;2023-04-20T09:19:51;100787.28;;;18.87;51.89
42385;BME280;28042;43.986;22.860;2023-04-20T09:22:28;100781.94;;;19.14;51.19
42385;BME280;28042;43.986;22.860;2023-04-20T09:24:54;100775.03;;;19.33;52.00
42385;BME280;28042;43.986;22.860;2023-04-20T09:27:19;100772.00;;;19.18;49.97
42385;BME280;28042;43.986;22.860;2023-04-20T09:29:57;100760.13;;;19.17;51.57
42385;BME280;28042;43.986;22.860;2023-04-20T09:32:24;100745.69;;;19.32;50.90
42385;BME280;28042;43.986;22.860;2023-04-20T09:34:50;100759.72;;;19.64;49.03
42385;BME280;28042;43.986;22.860;2023-04-20T09:37:15;100717.50;;;19.35;49.53
42385;BME280;28042;43.986;22.860;2023-04-20T09:39:43;100765.13;;;19.37;49.00
42385;BME280;28042;43.986;22.860;2023-04-20T09:42:11;100705.41;;;19.41;47.26
42385;BME280;28042;43.986;22.860;2023-04-20T09:44:38;100754.00;;;19.93;48.43
42385;BME280;28042;43.986;22.860;2023-04-20T09:47:03;100750.03;;;20.11;49.19
42385;BME280;28042;43.986;22.860;2023-04-20T09:49:30;100762.78;;;20.12;47.65
42385;BME280;28042;43.986;22.860;2023-04-20T09:51:57;100716.00;;;20.15;47.62
42385;BME280;28042;43.986;22.860;2023-04-20T09:54:22;100705.91;;;20.26;49.27
42385;BME280;28042;43.986;22.860;2023-04-20T09:56:48;100756.66;;;20.58;49.26
42385;BME280;28042;43.986;22.860;2023-04-20T09:59:16;100756.13;;;20.35;49.83
42385;BME280;28042;43.986;22.860;2023-04-20T10:01:43;100716.44;;;20.29;50.58
42385;BME280;28042;43.986;22.860;2023-04-20T10:04:09;100709.03;;;20.08;49.52
42385;BME280;28042;43.986;22.860;2023-04-20T10:06:36;100743.84;;;20.25;50.22
42385;BME280;28042;43.986;22.860;2023-04-20T10:09:04;100737.47;;;20.25;49.73
42385;BME280;28042;43.986;22.860;2023-04-20T10:14:00;100740.38;;;20.40;50.26
42385;BME280;28042;43.986;22.860;2023-04-20T10:16:27;100721.25;;;20.39;49.07
42385;BME280;28042;43.986;22.860;2023-04-20T10:19:00;100693.81;;;19.61;50.19
42385;BME280;28042;43.986;22.860;2023-04-20T10:21:30;100744.72;;;19.43;52.02
42385;BME280;28042;43.986;22.860;2023-04-20T10:24:00;100738.63;;;19.03;52.97
42385;BME280;28042;43.986;22.860;2023-04-20T10:26:37;100691.94;;;18.56;53.97
42385;BME280;28042;43.986;22.860;2023-04-20T10:29:03;100728.94;;;18.55;53.46
42385;BME280;28042;43.986;22.860;2023-04-20T10:31:38;100676.44;;;18.38;53.29
42385;BME280;28042;43.986;22.860;2023-04-20T10:34:06;100723.94;;;19.02;52.93
42385;BME280;28042;43.986;22.860;2023-04-20T10:36:36;100720.97;;;19.26;50.59
42385;BME280;28042;43.986;22.860;2023-04-20T10:39:15;100720.75;;;19.71;49.36
42385;BME280;28042;43.986;22.860;2023-04-20T10:44:15;100669.25;;;19.92;49.06
42385;BME280;28042;43.986;22.860;2023-04-20T10:46:41;100727.13;;;20.42;51.07
42385;BME280;28042;43.986;22.860;2023-04-20T10:49:06;100722.50;;;19.99;49.73
42385;BME280;28042;43.986;22.860;2023-04-20T10:51:33;100722.84;;;19.59;49.65
42385;BME280;28042;43.986;22.860;2023-04-20T10:56:24;100714.66;;;19.69;50.05
42385;BME280;28042;43.986;22.860;2023-04-20T10:58:51;100676.81;;;19.74;47.85
42385;BME280;28042;43.986;22.860;2023-04-20T11:01:16;100714.31;;;20.09;47.98
42385;BME280;28042;43.986;22.860;2023-04-20T11:03:48;100667.00;;;19.89;46.77
42385;BME280;28042;43.986;22.860;2023-04-20T11:06:16;100708.31;;;19.95;46.63
42385;BME280;28042;43.986;22.860;2023-04-20T11:08:42;100665.84;;;19.85;46.43
42385;BME280;28042;43.986;22.860;2023-04-20T11:11:21;100702.31;;;20.57;46.84
42385;BME280;28042;43.986;22.860;2023-04-20T11:13:49;100687.53;;;20.79;45.97
42385;BME280;28042;43.986;22.860;2023-04-20T11:16:17;100707.63;;;20.96;44.43
42385;BME280;28042;43.986;22.860;2023-04-20T11:18:51;100656.47;;;20.77;44.32
42385;BME280;28042;43.986;22.860;2023-04-20T11:21:16;100648.16;;;20.77;44.11
42385;BME280;28042;43.986;22.860;2023-04-20T11:23:42;100700.34;;;20.53;45.66
42385;BME280;28042;43.986;22.860;2023-04-20T11:26:09;100662.34;;;19.94;45.49
42385;BME280;28042;43.986;22.860;2023-04-20T11:28:35;100666.03;;;19.78;45.68
42385;BME280;28042;43.986;22.860;2023-04-20T11:31:01;100701.94;;;20.17;45.17
42385;BME280;28042;43.986;22.860;2023-04-20T11:33:30;100690.22;;;20.10;45.71
42385;BME280;28042;43.986;22.860;2023-04-20T11:35:57;100662.41;;;19.99;46.02
42385;BME280;28042;43.986;22.860;2023-04-20T11:38:31;100651.47;;;19.88;45.66
42385;BME280;28042;43.986;22.860;2023-04-20T11:40:57;100705.81;;;20.21;45.43
42385;BME280;28042;43.986;22.860;2023-04-20T11:43:31;100697.50;;;19.94;44.63
42385;BME280;28042;43.986;22.860;2023-04-20T11:45:57;100654.13;;;19.77;44.82
42385;BME280;28042;43.986;22.860;2023-04-20T11:48:23;100703.22;;;20.09;45.40
42385;BME280;28042;43.986;22.860;2023-04-20T11:50:48;100681.09;;;20.14;45.64
42385;BME280;28042;43.986;22.860;2023-04-20T11:53:14;100654.03;;;19.94;46.09
42385;BME280;28042;43.986;22.860;2023-04-20T11:55:40;100658.06;;;19.16;47.34
42385;BME280;28042;43.986;22.860;2023-04-20T11:58:07;100716.69;;;19.18;48.08
42385;BME280;28042;43.986;22.860;2023-04-20T12:00:33;100665.69;;;18.70;47.65
42385;BME280;28042;43.986;22.860;2023-04-20T12:02:58;100739.03;;;18.78;46.26
42385;BME280;28042;43.986;22.860;2023-04-20T12:05:26;100683.84;;;18.04;47.35
42385;BME280;28042;43.986;22.860;2023-04-20T12:07:52;100681.09;;;17.75;49.01
42385;BME280;28042;43.986;22.860;2023-04-20T12:10:17;100738.44;;;17.73;50.88
42385;BME280;28042;43.986;22.860;2023-04-20T12:12:42;100746.38;;;17.58;51.12
42385;BME280;28042;43.986;22.860;2023-04-20T12:15:08;100745.66;;;17.51;51.47
42385;BME280;28042;43.986;22.860;2023-04-20T12:17:34;100690.44;;;17.11;51.56
42385;BME280;28042;43.986;22.860;2023-04-20T12:20:01;100740.50;;;17.19;53.46
42385;BME280;28042;43.986;22.860;2023-04-20T12:22:26;100724.72;;;17.03;56.53
42385;BME280;28042;43.986;22.860;2023-04-20T12:24:52;100763.19;;;16.98;57.43
42385;BME280;28042;43.986;22.860;2023-04-20T12:27:17;100754.59;;;16.64;58.06
42385;BME280;28042;43.986;22.860;2023-04-20T12:29:43;100736.97;;;16.42;55.79
42385;BME280;28042;43.986;22.860;2023-04-20T12:32:08;100730.88;;;16.63;58.81
42385;BME280;28042;43.986;22.860;2023-04-20T12:34:34;100705.38;;;16.56;61.13
42385;BME280;28042;43.986;22.860;2023-04-20T12:36:59;100686.97;;;16.69;66.18
42385;BME280;28042;43.986;22.860;2023-04-20T12:39:25;100652.00;;;16.81;68.38
42385;BME280;28042;43.986;22.860;2023-04-20T12:41:50;100638.41;;;17.03;57.81